createdAt,value
2022-11-20T03:08:59.622Z,100097.47
2022-11-20T03:11:27.888Z,100095.16
2022-11-20T03:13:54.879Z,100091.88
2022-11-20T03:16:22.698Z,100093.75
2022-11-20T03:18:50.133Z,100088.88
2022-11-20T03:21:17.467Z,100093.94
2022-11-20T03:23:44.470Z,100097.03
2022-11-20T03:26:15.264Z,100093.75
2022-11-20T03:28:43.168Z,100102.78
2022-11-20T03:31:11.701Z,100101.59
2022-11-20T03:33:39.117Z,100105.38
2022-11-20T03:36:07.567Z,100106.69
2022-11-20T03:38:34.832Z,100109.50
2022-11-20T03:41:06.898Z,100113.34
2022-11-20T03:43:34.489Z,100111.41
2022-11-20T03:46:01.594Z,100109.75
2022-11-20T03:48:28.799Z,100116.63
2022-11-20T03:51:12.555Z,100113.16
2022-11-20T03:53:40.506Z,100123.97
2022-11-20T03:56:08.382Z,100135.16
2022-11-20T03:58:37.923Z,100137.69
2022-11-20T04:01:05.851Z,100137.97
2022-11-20T04:03:32.969Z,100144.00
2022-11-20T04:06:06.983Z,100150.84
2022-11-20T04:08:34.599Z,100153.34
2022-11-20T04:11:10.759Z,100149.78
2022-11-20T04:13:38.148Z,100146.31
2022-11-20T04:16:06.450Z,100148.91
2022-11-20T04:18:34.089Z,100145.00
2022-11-20T04:21:01.220Z,100151.06
2022-11-20T04:23:28.982Z,100152.69
2022-11-20T04:25:56.136Z,100152.06
2022-11-20T04:28:23.173Z,100155.13
2022-11-20T04:30:50.283Z,100151.91
2022-11-20T04:33:17.281Z,100152.00
2022-11-20T04:35:46.486Z,100150.63
2022-11-20T04:38:13.470Z,100146.66
2022-11-20T04:40:40.584Z,100154.53
2022-11-20T04:43:07.571Z,100154.59
2022-11-20T04:45:34.566Z,100157.91
2022-11-20T04:48:01.641Z,100163.13
2022-11-20T04:50:28.736Z,100151.44
2022-11-20T04:52:55.773Z,100156.19
2022-11-20T04:55:22.948Z,100154.59
2022-11-20T04:57:53.255Z,100155.59
2022-11-20T05:00:20.564Z,100162.44
2022-11-20T05:02:47.923Z,100160.94
2022-11-20T05:05:15.195Z,100162.00
2022-11-20T05:07:42.521Z,100161.94
2022-11-20T05:10:10.073Z,100170.38
2022-11-20T05:12:37.426Z,100165.41
2022-11-20T05:15:05.408Z,100163.47
2022-11-20T05:17:32.962Z,100173.44
2022-11-20T05:20:00.089Z,100172.44
2022-11-20T05:22:27.210Z,100176.81
2022-11-20T05:24:54.302Z,100176.06
2022-11-20T05:27:21.280Z,100178.72
2022-11-20T05:29:48.412Z,100185.56
2022-11-20T05:32:15.409Z,100184.53
2022-11-20T05:34:42.492Z,100169.19
2022-11-20T05:37:09.751Z,100185.66
2022-11-20T05:39:36.968Z,100180.41
2022-11-20T05:42:23.122Z,100189.13
2022-11-20T05:44:50.408Z,100180.41
2022-11-20T05:47:17.730Z,100181.94
2022-11-20T05:49:44.939Z,100194.69
2022-11-20T05:52:12.227Z,100192.16
2022-11-20T05:54:39.662Z,100196.03
2022-11-20T05:57:06.871Z,100199.66
2022-11-20T05:59:34.197Z,100204.03
2022-11-20T06:02:01.532Z,100205.97
2022-11-20T06:04:28.801Z,100212.81
2022-11-20T06:06:56.064Z,100218.72
2022-11-20T06:09:23.488Z,100225.41
2022-11-20T06:11:50.871Z,100222.00
2022-11-20T06:14:18.103Z,100220.47
2022-11-20T06:16:45.305Z,100223.00
2022-11-20T06:19:12.589Z,100224.00
2022-11-20T06:21:39.867Z,100225.53
2022-11-20T06:24:09.451Z,100223.22
2022-11-20T06:26:36.801Z,100234.44
2022-11-20T06:29:04.129Z,100230.94
2022-11-20T06:31:33.805Z,100235.25
2022-11-20T06:34:01.349Z,100244.47
2022-11-20T06:36:28.579Z,100240.41
2022-11-20T06:38:58.426Z,100249.91
2022-11-20T06:41:26.436Z,100252.41
2022-11-20T06:43:53.957Z,100251.72
2022-11-20T06:46:21.745Z,100252.44
2022-11-20T06:48:49.992Z,100249.75
2022-11-20T06:51:17.556Z,100256.66
2022-11-20T06:53:44.908Z,100254.03
2022-11-20T06:56:12.165Z,100262.34
2022-11-20T06:58:39.461Z,100265.97
2022-11-20T07:01:14.724Z,100283.06
2022-11-20T07:03:42.844Z,100275.38
2022-11-20T07:06:10.327Z,100278.66
2022-11-20T07:08:38.009Z,100276.91
2022-11-20T07:11:07.910Z,100277.66
2022-11-20T07:13:35.466Z,100275.00
2022-11-20T07:16:05.838Z,100278.28
2022-11-20T07:18:33.498Z,100288.31
2022-11-20T07:21:02.643Z,100281.25
2022-11-20T07:23:29.971Z,100285.47
2022-11-20T07:25:57.252Z,100291.19
2022-11-20T07:28:24.527Z,100289.28
2022-11-20T07:30:53.418Z,100301.06
2022-11-20T07:33:21.456Z,100298.84
2022-11-20T07:35:48.839Z,100287.75
2022-11-20T07:38:16.114Z,100291.88
2022-11-20T07:40:45.251Z,100291.72
2022-11-20T07:43:12.548Z,100294.84
2022-11-20T07:45:44.475Z,100296.41
2022-11-20T07:48:11.858Z,100288.09
2022-11-20T07:50:39.382Z,100283.16
2022-11-20T07:53:09.964Z,100294.28
2022-11-20T07:55:49.340Z,100289.84
2022-11-20T07:58:16.781Z,100292.75
2022-11-20T08:00:52.748Z,100300.16
2022-11-20T08:03:24.637Z,100289.22
2022-11-20T08:05:52.649Z,100288.00
2022-11-20T08:08:20.115Z,100292.81
2022-11-20T08:10:47.367Z,100304.63
2022-11-20T08:13:33.174Z,100305.03
2022-11-20T08:16:00.451Z,100313.03
2022-11-20T08:18:32.450Z,100307.75
2022-11-20T08:21:04.931Z,100313.38
2022-11-20T08:23:32.375Z,100316.69
2022-11-20T08:25:59.659Z,100310.63
2022-11-20T08:28:26.991Z,100310.03
2022-11-20T08:31:02.011Z,100310.66
2022-11-20T08:33:35.235Z,100306.03
2022-11-20T08:36:04.379Z,100315.72
2022-11-20T08:38:32.191Z,100310.59
2022-11-20T08:41:23.716Z,100320.75
2022-11-20T08:43:52.169Z,100319.75
2022-11-20T08:46:19.504Z,100322.56
2022-11-20T08:48:46.998Z,100322.94
2022-11-20T08:51:14.465Z,100321.75
2022-11-20T08:53:42.436Z,100326.16
2022-11-20T08:56:13.213Z,100323.13
2022-11-20T08:59:09.986Z,100318.75
2022-11-20T09:01:30.134Z,100333.13
2022-11-20T09:03:58.151Z,100329.84
2022-11-20T09:06:25.476Z,100322.22
2022-11-20T10:55:52.343Z,100302.88
2022-11-20T10:58:40.045Z,100302.78
2022-11-20T11:01:15.937Z,100298.38
2022-11-20T11:03:50.600Z,100298.38
2022-11-20T11:06:35.301Z,100303.22
2022-11-20T11:12:29.287Z,100304.13
2022-11-20T11:15:04.838Z,100300.22
2022-11-20T11:20:24.976Z,100287.25
2022-11-20T11:22:57.838Z,100278.41
2022-11-20T11:28:18.287Z,100279.34
2022-11-20T11:30:51.777Z,100276.53
2022-11-20T11:33:39.885Z,100282.63
2022-11-20T11:36:18.151Z,100282.44
2022-11-20T11:38:45.929Z,100283.63
2022-11-20T11:41:19.464Z,100282.03
2022-11-20T11:48:16.468Z,100263.66
2022-11-20T11:55:35.990Z,100265.16
2022-11-20T11:58:24.055Z,100259.66
2022-11-20T12:01:17.396Z,100267.78
2022-11-20T12:03:52.404Z,100266.38
2022-11-20T12:06:38.515Z,100264.22
2022-11-20T12:09:41.101Z,100265.53
2022-11-20T12:12:43.955Z,100264.88
2022-11-20T12:15:19.870Z,100267.38
2022-11-20T12:17:49.051Z,100259.69
2022-11-20T12:20:17.329Z,100259.00
2022-11-20T12:23:01.152Z,100249.69
2022-11-20T12:25:34.561Z,100250.22
2022-11-20T12:28:01.753Z,100253.91
2022-11-20T12:34:00.678Z,100244.66
2022-11-20T12:36:49.230Z,100243.16
2022-11-20T12:39:26.364Z,100239.63
2022-11-20T12:42:32.918Z,100233.44
2022-11-20T12:45:22.400Z,100238.28
2022-11-20T12:48:17.164Z,100233.03
2022-11-20T12:51:13.850Z,100240.53
2022-11-20T12:53:53.421Z,100231.69
2022-11-20T12:56:34.106Z,100234.94
2022-11-20T12:59:14.940Z,100237.84
2022-11-20T13:02:02.696Z,100231.41
2022-11-20T13:05:17.221Z,100232.53
2022-11-20T13:07:57.365Z,100236.16
2022-11-20T13:14:26.595Z,100234.81
2022-11-20T13:17:06.257Z,100234.31
2022-11-20T13:19:35.613Z,100234.31
2022-11-20T13:22:05.823Z,100231.16
2022-11-20T13:27:52.231Z,100227.25
2022-11-20T13:30:24.699Z,100225.53
2022-11-20T13:33:09.948Z,100224.47
2022-11-20T13:35:44.738Z,100219.63
2022-11-20T13:38:14.667Z,100213.63
2022-11-20T13:41:28.028Z,100208.97
2022-11-20T13:44:08.706Z,100202.53
2022-11-20T13:46:46.496Z,100208.03
2022-11-20T13:49:45.238Z,100206.50
2022-11-20T13:52:22.272Z,100209.69
2022-11-20T13:55:17.915Z,100208.66
2022-11-20T13:57:51.839Z,100210.81
2022-11-20T14:00:22.414Z,100220.94
2022-11-20T14:03:03.365Z,100225.69
2022-11-20T14:05:36.082Z,100225.13
2022-11-20T14:08:13.127Z,100216.59
2022-11-20T14:10:44.027Z,100210.56
2022-11-20T14:16:07.380Z,100219.84
2022-11-20T14:18:37.658Z,100216.66
2022-11-20T14:21:07.320Z,100205.22
2022-11-20T14:23:34.853Z,100214.97
2022-11-20T14:28:53.057Z,100207.94
2022-11-20T14:31:41.371Z,100209.78
2022-11-20T14:34:39.604Z,100202.63
2022-11-20T14:37:38.952Z,100211.66
2022-11-20T14:40:38.557Z,100214.81
2022-11-20T14:43:20.122Z,100209.13
2022-11-20T14:45:49.999Z,100205.41
2022-11-20T14:48:48.068Z,100206.78
2022-11-20T14:51:09.209Z,100205.63
2022-11-20T14:53:39.971Z,100199.72
2022-11-20T14:56:13.118Z,100207.44
2022-11-20T14:59:01.730Z,100216.53
2022-11-20T15:04:28.122Z,100222.06
2022-11-20T15:07:04.361Z,100208.31
2022-11-20T15:09:31.589Z,100209.28
2022-11-20T15:12:00.698Z,100216.63
2022-11-20T15:14:28.875Z,100216.78
2022-11-20T15:16:56.106Z,100219.69
2022-11-20T15:19:24.485Z,100220.78
2022-11-20T15:21:51.794Z,100221.09
2022-11-20T15:24:18.859Z,100228.16
2022-11-20T15:26:46.259Z,100226.94
2022-11-20T15:29:15.747Z,100240.81
2022-11-20T15:31:44.249Z,100230.63
2022-11-20T15:34:14.575Z,100234.00
2022-11-20T15:36:42.135Z,100236.06
2022-11-20T15:39:09.564Z,100239.94
2022-11-20T15:41:37.441Z,100240.84
2022-11-20T15:44:05.235Z,100245.94
2022-11-20T15:46:38.290Z,100246.84
2022-11-20T15:49:06.064Z,100247.91
2022-11-20T15:51:42.276Z,100255.66
2022-11-20T15:54:21.432Z,100251.28
2022-11-20T15:56:50.554Z,100247.09
2022-11-20T15:59:17.994Z,100256.56
2022-11-20T16:01:45.491Z,100248.31
2022-11-20T16:04:14.667Z,100256.34
2022-11-20T16:06:42.610Z,100259.22
2022-11-20T16:09:10.530Z,100255.81
2022-11-20T16:11:38.412Z,100264.97
2022-11-20T16:14:25.758Z,100276.75
2022-11-20T16:16:53.391Z,100277.28
2022-11-20T16:19:20.831Z,100282.19
2022-11-20T16:21:48.057Z,100286.06
2022-11-20T16:24:16.872Z,100285.34
2022-11-20T16:26:44.332Z,100289.16
2022-11-20T16:29:11.638Z,100290.56
2022-11-20T16:31:38.885Z,100294.28
2022-11-20T16:34:11.889Z,100301.63
2022-11-20T16:36:40.437Z,100296.34
2022-11-20T16:39:07.517Z,100304.16
2022-11-20T16:41:35.350Z,100299.19
2022-11-20T16:44:03.252Z,100306.38
2022-11-20T16:46:31.535Z,100303.19
2022-11-20T16:48:59.753Z,100304.25
2022-11-20T16:51:27.851Z,100296.78
2022-11-20T16:53:56.060Z,100304.94
2022-11-20T16:56:25.053Z,100299.63
2022-11-20T16:58:53.824Z,100305.16
2022-11-20T17:01:21.973Z,100303.59
2022-11-20T17:03:57.074Z,100312.25
2022-11-20T17:06:25.842Z,100303.72
2022-11-20T17:08:53.892Z,100302.44
2022-11-20T17:11:21.139Z,100300.97
2022-11-20T17:13:48.416Z,100299.97
2022-11-20T17:16:17.347Z,100304.25
2022-11-20T17:18:44.851Z,100315.59
2022-11-20T17:21:11.948Z,100316.72
2022-11-20T17:23:40.374Z,100314.91
2022-11-20T17:26:09.388Z,100318.63
2022-11-20T17:28:36.968Z,100318.63
2022-11-20T17:31:22.327Z,100315.25
2022-11-20T17:33:49.551Z,100315.44
2022-11-20T17:36:17.270Z,100306.91
2022-11-20T17:38:44.683Z,100316.94
2022-11-20T17:41:13.269Z,100315.97
2022-11-20T17:43:40.935Z,100311.19
2022-11-20T17:46:09.331Z,100306.41
2022-11-20T17:48:37.299Z,100310.69
2022-11-20T17:51:05.790Z,100306.03
2022-11-20T17:53:35.085Z,100312.09
2022-11-20T17:56:20.914Z,100317.88
2022-11-20T17:58:48.284Z,100312.91
2022-11-20T18:01:15.842Z,100309.56
2022-11-20T18:04:09.966Z,100311.31
2022-11-20T18:06:43.282Z,100313.59
2022-11-20T18:09:11.518Z,100318.88
2022-11-20T18:11:40.796Z,100320.22
2022-11-20T18:14:31.222Z,100328.91
2022-11-20T18:17:04.854Z,100330.97
2022-11-20T18:19:37.621Z,100332.56
2022-11-20T18:22:08.897Z,100331.88
2022-11-20T18:24:37.255Z,100343.09
2022-11-20T18:27:05.956Z,100341.69
2022-11-20T18:29:33.818Z,100350.44
2022-11-20T18:32:01.558Z,100347.34
2022-11-20T18:34:29.123Z,100343.22
2022-11-20T18:36:56.479Z,100343.06
2022-11-20T18:39:24.177Z,100347.53
2022-11-20T18:42:09.968Z,100346.63
2022-11-20T18:44:54.820Z,100343.78
2022-11-20T18:47:30.873Z,100338.50
2022-11-20T18:50:00.920Z,100338.31
2022-11-20T18:52:44.685Z,100331.47
2022-11-20T18:55:12.932Z,100334.94
2022-11-20T18:57:40.488Z,100335.03
2022-11-20T19:00:09.812Z,100331.63
2022-11-20T19:02:42.240Z,100328.28
2022-11-20T19:05:12.192Z,100335.31
2022-11-20T19:07:39.872Z,100322.94
2022-11-20T19:10:08.003Z,100332.31
2022-11-20T19:12:35.244Z,100322.16
2022-11-20T19:15:03.068Z,100321.91
2022-11-20T19:17:30.260Z,100313.34
2022-11-20T19:19:57.497Z,100315.03
2022-11-20T19:22:24.835Z,100314.84
2022-11-20T19:24:52.072Z,100318.22
2022-11-20T19:27:19.528Z,100312.31
2022-11-20T19:29:46.915Z,100311.75
2022-11-20T19:32:14.154Z,100311.53
2022-11-20T19:34:41.666Z,100310.13
2022-11-20T19:37:09.827Z,100318.78
2022-11-20T19:39:37.379Z,100304.31
2022-11-20T19:42:04.879Z,100301.78
2022-11-20T19:44:33.165Z,100305.28
2022-11-20T19:47:03.040Z,100310.59
2022-11-20T19:49:31.664Z,100300.38
2022-11-20T19:51:59.167Z,100300.72
2022-11-20T19:54:26.798Z,100299.94
2022-11-20T19:56:55.590Z,100295.66
2022-11-20T19:59:23.365Z,100298.94
2022-11-20T20:01:50.931Z,100288.63
2022-11-20T20:04:18.778Z,100283.47
2022-11-20T20:06:46.901Z,100283.38
2022-11-20T20:09:14.456Z,100274.84
2022-11-20T20:11:45.939Z,100283.19
2022-11-20T20:14:15.924Z,100293.59
2022-11-20T20:16:43.547Z,100286.97
2022-11-20T20:19:15.721Z,100284.44
2022-11-20T20:21:44.383Z,100278.22
2022-11-20T20:24:12.112Z,100288.72
2022-11-20T20:26:40.214Z,100297.44
2022-11-20T20:29:07.888Z,100301.09
2022-11-20T20:31:38.919Z,100292.53
2022-11-20T20:34:06.557Z,100301.16
2022-11-20T20:36:34.065Z,100303.13
2022-11-20T20:39:02.987Z,100303.28
2022-11-20T20:41:31.388Z,100300.97
2022-11-20T20:44:17.326Z,100300.28
2022-11-20T20:46:46.511Z,100293.38
2022-11-20T20:49:14.229Z,100288.31
2022-11-20T20:51:44.631Z,100291.53
2022-11-20T20:54:12.319Z,100284.38
2022-11-20T20:56:40.061Z,100276.38
2022-11-20T20:59:07.787Z,100254.91
2022-11-20T21:01:35.752Z,100265.63
2022-11-20T21:04:03.453Z,100262.91
2022-11-20T21:06:30.902Z,100264.78
2022-11-20T21:08:59.355Z,100277.06
2022-11-20T21:11:36.363Z,100277.34
2022-11-20T21:14:08.464Z,100280.88
2022-11-20T21:17:13.688Z,100272.50
2022-11-20T21:19:56.661Z,100278.59
2022-11-20T21:22:36.544Z,100270.91
2022-11-20T21:25:07.967Z,100288.06
2022-11-20T21:28:34.624Z,100276.06
2022-11-20T21:31:35.084Z,100281.41
2022-11-20T21:34:14.821Z,100278.81
2022-11-20T21:37:02.920Z,100282.81
2022-11-20T21:40:09.025Z,100284.22
2022-11-20T21:42:43.300Z,100292.63
2022-11-20T21:45:14.925Z,100275.72
2022-11-20T21:47:59.317Z,100272.50
2022-11-20T21:50:27.433Z,100281.13
2022-11-20T21:53:04.021Z,100284.69
2022-11-20T21:55:37.090Z,100303.56
2022-11-20T21:58:06.858Z,100310.47
2022-11-20T22:00:37.105Z,100290.44
2022-11-20T22:03:14.845Z,100292.22
2022-11-20T22:05:45.001Z,100298.06
2022-11-20T22:08:27.989Z,100287.28
2022-11-20T22:11:13.840Z,100294.38
2022-11-20T22:14:12.670Z,100300.25
2022-11-20T22:16:44.972Z,100304.75
2022-11-20T22:22:33.901Z,100301.53
2022-11-20T22:25:30.480Z,100315.31
2022-11-20T22:28:17.626Z,100306.09
2022-11-20T22:30:48.445Z,100318.03
2022-11-20T22:36:26.994Z,100317.16
2022-11-20T22:39:08.820Z,100308.78
2022-11-20T22:42:18.546Z,100334.16
2022-11-20T22:44:59.172Z,100318.84
2022-11-20T22:47:39.466Z,100315.94
2022-11-20T22:50:21.300Z,100321.13
2022-11-20T22:52:52.844Z,100325.00
2022-11-20T22:55:30.064Z,100323.28
2022-11-20T22:58:02.502Z,100329.75
2022-11-20T23:00:48.781Z,100318.00
2022-11-20T23:03:16.945Z,100314.44
2022-11-20T23:11:17.047Z,100324.41
2022-11-20T23:14:00.061Z,100329.47
2022-11-20T23:16:48.780Z,100330.19
2022-11-20T23:22:19.461Z,100327.47
2022-11-20T23:27:48.989Z,100328.94
2022-11-20T23:30:20.335Z,100316.09
2022-11-20T23:32:49.056Z,100310.31
2022-11-20T23:35:46.660Z,100306.50
2022-11-20T23:38:25.774Z,100284.16
2022-11-20T23:40:56.397Z,100288.72
2022-11-20T23:43:40.229Z,100288.97
2022-11-20T23:46:20.564Z,100292.19
2022-11-20T23:52:34.667Z,100277.69
2022-11-20T23:55:27.719Z,100276.13
2022-11-20T23:58:14.934Z,100277.25
